• Join FlightAware (Why Join?)
  • Login
  • US Flag 
10:25PM EST


 

Airport Tracker/Info


-or-


 

Live Flight TrackerFlight Track Log ✈ RAX701 ✈ 20-Jun-2013 ✈ KHKY - KTCL

Flight Track Log - Related Links

Times and Time Zones

All times are in EDT time to prevent confusion due to time zone crossing. See the RAX701 flight status page for this flight to view local times or setup timezone preferences in your user account.

Time Position Orientation Groundspeed Altitude Reporting Facility
EDT Latitude Longitude Course Direction KTS MPH feet Rate Location/Type
03:43PM 35.7728 -81.3769 243° Southwest 148 170 2,300  Level Atlanta Center
03:44PM 35.7531 -81.4314 246° West 81 93 10,000 1,260 Climbing Atlanta Center
03:45PM 35.7333 -81.4806 244° Southwest 149 171 4,900 -1,980 Descending Atlanta Center
03:46PM 35.7136 -81.5375 247° West 177 204 6,100 1,200 Climbing Atlanta Center
03:47PM 35.5937 -81.7821 243° Southwest  Level FlightAware Approximate
03:47PM 35.6958 -81.5864 246° West 177 204 7,300  Level Atlanta Center
03:48PM 35.6761 -81.6408 246° West 177 204 8,400 1,020 Climbing Atlanta Center
03:49PM 35.6561 -81.6900 243° Southwest 177 204 9,400 840 Climbing Atlanta Center
03:50PM 35.6342 -81.7442 244° Southwest 177 204 10,100 300 Climbing Atlanta Center
03:51PM 35.6122 -81.7958 242° Southwest 187 215 10,100  Level Atlanta Center
03:52PM 35.5861 -81.8553 242° Southwest 199 229 10,200 -60 Climbing Atlanta Center
03:53PM 35.5603 -81.9225 245° Southwest 199 229 10,000 -120 Descending Atlanta Center
03:54PM 35.5364 -81.9869 246° West 206 237 10,000  Level Atlanta Center
03:55PM 35.5122 -82.0511 245° Southwest 213 245 10,000 -60 Level Atlanta Center
03:56PM 35.4925 -82.1231 251° West 213 245 9,900  Descending Atlanta Center
03:57PM 35.4644 -82.1953 245° Southwest 213 245 10,000  Climbing Atlanta Center
03:58PM 35.4383 -82.2619 244° Southwest 218 251 10,000  Level Atlanta Center
03:59PM 35.4142 -82.3264 245° Southwest 218 251 10,000  Level Atlanta Center
04:00PM 35.3858 -82.3956 243° Southwest 218 251 10,000  Level Atlanta Center
04:01PM 35.3617 -82.4597 245° Southwest 218 251 10,000  Level Atlanta Center
04:04PM 35.2786 -82.6472 242° Southwest 220 253 10,000  Level Atlanta Center
04:05PM 35.2583 -82.7008 245° Southwest 213 245 10,000  Level Atlanta Center
04:06PM 35.2339 -82.7750 248° West 225 259 10,000  Level Atlanta Center
04:07PM 35.2094 -82.8364 244° Southwest 218 251 10,000  Level Atlanta Center
04:08PM 35.1831 -82.9003 243° Southwest 218 251 10,100  Climbing Atlanta Center
04:09PM 35.1586 -82.9692 247° West 218 251 10,100 -60 Level Atlanta Center
04:10PM 35.1361 -83.0381 248° West 218 251 10,000  Descending Atlanta Center
04:11PM 35.1097 -83.1019 243° Southwest 218 251 10,200  Climbing Atlanta Center
04:12PM 35.0831 -83.1681 244° Southwest 218 251 10,000 -120 Descending Atlanta Center
04:13PM 35.0542 -83.2344 242° Southwest 218 251 10,000  Level Atlanta Center
04:14PM 35.0275 -83.3031 245° Southwest 224 258 10,000 -60 Level Atlanta Center
04:15PM 35.0008 -83.3719 245° Southwest 224 258 9,900 -60 Descending Atlanta Center
04:16PM 34.9781 -83.4356 246° West 224 258 9,900  Level Atlanta Center
04:17PM 34.9492 -83.5092 244° Southwest 224 258 10,000  Climbing Atlanta Center
04:18PM 34.9203 -83.5703 240° Southwest 224 258 10,000  Level Atlanta Center
04:19PM 34.8956 -83.6361 245° Southwest 224 258 10,000 -60 Level Atlanta Center
04:20PM 34.8708 -83.7044 246° West 224 258 9,900 -60 Descending Atlanta Center
04:21PM 34.8417 -83.7706 242° Southwest 224 258 9,900  Level Atlanta Center
04:22PM 34.8167 -83.8414 247° West 224 258 10,000  Climbing Atlanta Center
04:23PM 34.7897 -83.9097 244° Southwest 224 258 10,000  Level Atlanta Center
04:24PM 34.7625 -83.9781 244° Southwest 224 258 10,100 -60 Climbing Atlanta Center
04:25PM 34.7314 -84.0439 240° Southwest 224 258 9,900 -60 Descending Atlanta Center
04:26PM 34.7042 -84.1094 243° Southwest 224 258 10,000  Climbing Atlanta Center
04:27PM 34.6750 -84.1778 243° Southwest 224 258 9,900  Descending Atlanta Center
04:28PM 34.6478 -84.2483 245° Southwest 224 258 10,000  Climbing Atlanta Center
04:29PM 34.6164 -84.3164 241° Southwest 224 258 10,000  Level Atlanta Center
04:30PM 34.5911 -84.3819 245° Southwest 219 252 10,000  Level Atlanta Center
04:31PM 34.5636 -84.4500 244° Southwest 219 252 10,000  Level Atlanta Center
04:32PM 34.5383 -84.5206 247° West 224 258 10,000 -60 Level Atlanta Center
04:33PM 34.5131 -84.5883 246° West 224 258 9,900  Descending Atlanta Center
04:34PM 34.4897 -84.6486 245° Southwest 224 258 10,100  Climbing Atlanta Center
04:35PM 34.4625 -84.7139 243° Southwest 224 258 10,000  Descending Atlanta Center
04:36PM 34.4328 -84.7842 243° Southwest 224 258 10,100  Climbing Atlanta Center
04:37PM 34.4053 -84.8519 244° Southwest 224 258 10,000 -120 Descending Atlanta Center
04:38PM 34.3692 -84.9169 236° Southwest 229 264 9,900 -60 Descending Atlanta Center
04:39PM 34.3436 -84.9847 245° Southwest 229 264 9,900  Level Atlanta Center
04:40PM 34.3139 -85.0522 242° Southwest 224 258 9,900  Level Atlanta Center
04:41PM 34.2864 -85.1175 243° Southwest 218 251 10,000  Climbing Atlanta Center
04:42PM 34.2564 -85.1875 243° Southwest 224 258 9,900  Descending Atlanta Center
04:43PM 34.2264 -85.2597 243° Southwest 224 258 10,000  Climbing Atlanta Center
04:44PM 34.1986 -85.3297 244° Southwest 224 258 10,000  Level Atlanta Center
04:45PM 34.1686 -85.3994 243° Southwest 224 258 10,000  Level Atlanta Center
04:46PM 34.1408 -85.4644 243° Southwest 224 258 10,000 -60 Level Atlanta Center
04:47PM 34.1150 -85.5317 245° Southwest 224 258 9,900  Descending Atlanta Center
04:48PM 34.0869 -85.5989 243° Southwest 231 266 10,000  Climbing Atlanta Center
04:49PM 34.0569 -85.6661 242° Southwest 226 260 10,000 -60 Level Atlanta Center
04:50PM 34.0269 -85.7331 242° Southwest 226 260 9,900  Descending Atlanta Center
04:51PM 34.0008 -85.8028 246° West 226 260 10,000 60 Climbing Atlanta Center
04:52PM 33.9706 -85.8672 240° Southwest 226 260 10,100 -60 Climbing Atlanta Center
04:53PM 33.9403 -85.9342 241° Southwest 226 260 9,900 -720 Descending Atlanta Center
04:54PM 33.9058 -86.0061 240° Southwest 233 268 8,700 -1,020 Descending Atlanta Center
04:55PM 33.8775 -86.0806 245° Southwest 243 280 7,900 -420 Descending Atlanta Center
04:56PM 33.8472 -86.1472 241° Southwest 248 285 7,900  Level Atlanta Center
04:57PM 33.8167 -86.2192 243° Southwest 222 255 8,000  Climbing Atlanta Center
04:58PM 33.7906 -86.2808 243° Southwest 223 257 7,900  Descending Atlanta Center
04:59PM 33.7600 -86.3475 241° Southwest 224 258 8,000 -120 Climbing Atlanta Center
05:00PM 33.7339 -86.4142 245° Southwest 224 258 7,700 -480 Descending Atlanta Center
05:01PM 33.7053 -86.4883 245° Southwest 235 270 7,100 -600 Descending Atlanta Center
05:02PM 33.6767 -86.5575 244° Southwest 240 276 6,500 -540 Descending Atlanta Center
05:03PM 33.6439 -86.6264 240° Southwest 235 270 6,100 -300 Descending Atlanta Center
05:04PM 33.6133 -86.6903 240° Southwest 235 270 5,900 -120 Descending Atlanta Center
05:05PM 33.5825 -86.7617 243° Southwest 232 267 5,900  Level Atlanta Center
05:06PM 33.5514 -86.8456 246° West 227 261 6,000  Climbing Atlanta Center
05:07PM 33.5231 -86.9069 241° Southwest 226 260 5,900 -60 Descending Atlanta Center
05:08PM 33.4942 -86.9781 244° Southwest 226 260 5,900  Level Atlanta Center
05:09PM 33.4631 -87.0567 245° Southwest 224 258 6,000  Climbing Atlanta Center
05:10PM 33.4475 -87.0961 245° Southwest 224 258 6,000  Level Atlanta Center
05:11PM 33.4208 -87.1622 244° Southwest 222 255 6,000 -120 Level Atlanta Center
05:12PM 33.3897 -87.2283 241° Southwest 221 254 5,800 -60 Descending Atlanta Center
05:13PM 33.3631 -87.2969 245° Southwest 227 261 5,900 -480 Climbing Atlanta Center
05:14PM 33.3361 -87.3656 245° Southwest 226 260 4,900 -1,080 Descending Atlanta Center
05:15PM 33.3114 -87.4317 246° West 227 261 3,800 -1,140 Descending Atlanta Center
05:16PM 33.2886 -87.4981 248° West 216 249 2,600 -900 Descending Atlanta Center
05:17PM 33.2639 -87.5592 244° Southwest 165 190 1,900 -480 Descending Atlanta Center
05:18PM 33.2442 -87.5881 231° Southwest 158 182 1,600 -180 Descending Atlanta Center
05:19PM 33.2442 -87.5881 132° Southeast 158 182 1,600  Level Atlanta Center
05:21PM 33.2167 -87.6000 220° Southwest  Level FlightAware Approximate
05:28PM 33.2206 -87.6114 220° Southwest  Level Estimated
05:29PM 33.2206 -87.6114 220° Southwest  Level Estimated
05:30PM 33.2206 -87.6114 220° Southwest  Level Estimated
05:31PM 33.2206 -87.6114 220° Southwest  Level Estimated
05:32PM 33.2206 -87.6114 220° Southwest  Level Estimated
05:33PM 33.2206 -87.6114 220° Southwest  Level Estimated